Time;durP1;ratioP1;P1;durP2;ratioP2;P2;SDS_P1;SDS_P2;PMS_P1;PMS_P2;Temp;Humidity;BMP_temperature;BMP_pressure;BME280_temperature;BME280_humidity;BME280_pressure;Samples;Min_cycle;Max_cycle;Signal;HPM_P1;HPM_P2
2020/12/25 00:00:40;;;;;;;10.02;3.22;;;;;;;3.71;100.00;102056.22;4950054;28;20028;-66
2020/12/25 00:03:07;;;;;;;16.45;3.15;;;;;;;3.73;100.00;102053.50;4964704;28;20031;-66
2020/12/25 00:05:32;;;;;;;9.68;2.38;;;;;;;3.73;100.00;102056.16;4950820;28;20065;-66
2020/12/25 00:07:58;;;;;;;14.20;2.90;;;;;;;3.74;100.00;102055.22;4950018;28;20119;-66
2020/12/25 00:10:23;;;;;;;8.85;2.40;;;;;;;3.75;100.00;102068.38;4950561;28;20323;-66
2020/12/25 00:12:49;;;;;;;8.48;2.33;;;;;;;3.74;100.00;102057.88;4950142;28;20039;-66
2020/12/25 00:15:14;;;;;;;7.80;2.33;;;;;;;3.74;100.00;102066.69;4950043;28;20078;-66
2020/12/25 00:17:40;;;;;;;10.73;1.98;;;;;;;3.66;100.00;102066.28;4949952;28;20506;-66
2020/12/25 00:20:06;;;;;;;13.23;2.53;;;;;;;3.66;100.00;102063.63;4950611;28;20579;-66
2020/12/25 00:22:31;;;;;;;7.65;1.85;;;;;;;3.69;100.00;102071.41;4950355;28;20031;-66
2020/12/25 00:24:57;;;;;;;10.68;2.65;;;;;;;3.56;100.00;102065.13;4950351;28;20035;-66
2020/12/25 00:27:22;;;;;;;10.70;3.60;;;;;;;3.48;100.00;102065.59;4949753;28;20496;-66
2020/12/25 00:29:48;;;;;;;15.90;3.53;;;;;;;3.46;100.00;102067.47;4949855;28;20036;-66
2020/12/25 00:32:13;;;;;;;15.32;4.68;;;;;;;3.52;100.00;102068.91;4951094;28;20035;-66
2020/12/25 00:34:39;;;;;;;8.63;2.80;;;;;;;3.44;100.00;102063.19;4953704;28;20597;-66
2020/12/25 00:37:05;;;;;;;11.63;2.60;;;;;;;3.42;100.00;102071.25;4953668;28;20033;-66
2020/12/25 00:39:30;;;;;;;10.07;3.58;;;;;;;3.27;100.00;102070.34;4953577;28;20023;-66
2020/12/25 00:41:56;;;;;;;11.98;3.13;;;;;;;3.26;100.00;102066.00;4968627;28;20074;-66
2020/12/25 00:44:21;;;;;;;10.35;3.50;;;;;;;3.23;100.00;102076.78;4953220;28;20067;-66
2020/12/25 00:46:47;;;;;;;17.27;3.95;;;;;;;3.16;100.00;102078.06;4953086;28;20496;-66
2020/12/25 00:49:13;;;;;;;17.55;3.22;;;;;;;3.14;100.00;102079.09;4952528;28;20118;-66
2020/12/25 00:51:39;;;;;;;10.40;2.65;;;;;;;3.13;100.00;102077.41;4953454;28;20463;-66
2020/12/25 00:54:06;;;;;;;8.65;2.83;;;;;;;3.03;100.00;102085.88;4952623;28;20031;-66
2020/12/25 00:56:31;;;;;;;11.25;2.90;;;;;;;3.07;100.00;102078.63;4951988;28;20404;-66
2020/12/25 00:58:57;;;;;;;16.02;4.18;;;;;;;2.97;100.00;102085.38;4952761;28;20032;-67
2020/12/25 01:01:22;;;;;;;18.85;3.63;;;;;;;2.98;100.00;102076.47;4952300;28;20384;-67
2020/12/25 01:03:48;;;;;;;14.80;3.97;;;;;;;2.92;100.00;102077.69;4952574;28;20035;-67
2020/12/25 01:06:17;;;;;;;5.35;2.78;;;;;;;2.83;100.00;102079.06;4952529;28;20460;-67
2020/12/25 01:08:45;;;;;;;13.10;3.85;;;;;;;2.75;100.00;102093.66;4953163;28;20271;-67
2020/12/25 01:11:11;;;;;;;10.15;3.65;;;;;;;2.80;100.00;102084.50;4952615;28;20114;-67
2020/12/25 01:13:38;;;;;;;11.35;3.92;;;;;;;2.77;100.00;102095.31;4951864;28;20416;-67
2020/12/25 01:16:05;;;;;;;8.75;3.75;;;;;;;2.72;100.00;102099.16;4952743;28;20035;-66
2020/12/25 01:18:31;;;;;;;15.88;4.03;;;;;;;2.65;100.00;102109.22;4952354;28;20428;-66
2020/12/25 01:20:57;;;;;;;17.83;3.35;;;;;;;2.63;100.00;102102.31;4952622;28;20041;-67
2020/12/25 01:23:23;;;;;;;9.55;2.95;;;;;;;2.71;100.00;102111.56;4952210;28;20130;-67
2020/12/25 01:25:49;;;;;;;13.90;2.85;;;;;;;2.63;100.00;102115.56;4951572;28;20031;-66
2020/12/25 01:28:15;;;;;;;14.98;3.47;;;;;;;2.70;100.00;102116.91;4951866;28;20501;-66
2020/12/25 01:30:40;;;;;;;18.50;2.85;;;;;;;2.57;100.00;102122.91;4952080;28;20042;-67
2020/12/25 01:33:06;;;;;;;6.97;2.03;;;;;;;2.46;100.00;102119.97;4952842;28;20035;-67
2020/12/25 01:35:32;;;;;;;11.55;2.65;;;;;;;2.45;100.00;102130.63;4952149;28;20515;-67
2020/12/25 01:37:57;;;;;;;12.60;2.33;;;;;;;2.39;100.00;102136.28;4952129;28;20034;-67
2020/12/25 01:40:23;;;;;;;12.13;2.00;;;;;;;2.24;100.00;102145.88;4948109;28;20039;-67
2020/12/25 01:42:48;;;;;;;7.85;1.60;;;;;;;2.19;100.00;102143.47;4952348;28;20037;-67
2020/12/25 01:45:14;;;;;;;11.55;1.90;;;;;;;2.14;100.00;102150.81;4952239;28;20046;-66
2020/12/25 01:47:40;;;;;;;7.55;1.75;;;;;;;2.06;100.00;102151.22;4952151;28;20038;-67
2020/12/25 01:50:06;;;;;;;9.38;2.42;;;;;;;2.03;100.00;102153.16;4952505;28;20641;-66
2020/12/25 01:52:34;;;;;;;8.05;1.98;;;;;;;1.97;100.00;102158.78;4952513;28;20046;-67
2020/12/25 01:55:02;;;;;;;12.07;2.08;;;;;;;1.88;100.00;102161.88;4938964;29;20408;-67
2020/12/25 01:57:28;;;;;;;6.15;1.73;;;;;;;1.81;100.00;102162.22;4951560;28;20038;-67
2020/12/25 01:59:55;;;;;;;15.60;2.42;;;;;;;1.78;100.00;102166.78;4938941;29;20113;-67
2020/12/25 02:02:24;;;;;;;17.70;2.28;;;;;;;1.80;100.00;102168.41;4951959;28;20526;-67
2020/12/25 02:04:50;;;;;;;8.73;2.05;;;;;;;1.83;100.00;102171.84;4952808;28;20046;-67
2020/12/25 02:07:16;;;;;;;12.77;2.05;;;;;;;1.79;100.00;102177.28;4951546;28;20035;-67
2020/12/25 02:09:41;;;;;;;8.10;2.10;;;;;;;1.72;100.00;102180.34;4952355;28;20031;-66
2020/12/25 02:12:27;;;;;;;10.75;1.92;;;;;;;1.64;100.00;102188.63;4951100;29;20047;-67
2020/12/25 02:14:55;;;;;;;6.05;2.22;;;;;;;1.61;100.00;102188.81;4952464;28;20035;-67
2020/12/25 02:17:34;;;;;;;13.65;2.03;;;;;;;1.63;100.00;102199.31;4951665;28;20035;-67
2020/12/25 02:20:15;;;;;;;10.63;2.17;;;;;;;1.68;100.00;102197.28;4951571;28;20089;-67
2020/12/25 02:22:41;;;;;;;5.45;1.63;;;;;;;1.73;100.00;102204.06;4952593;28;20504;-66
2020/12/25 02:25:26;;;;;;;8.80;2.03;;;;;;;1.71;100.00;102200.66;4950959;28;20102;-66
2020/12/25 02:27:59;;;;;;;7.55;1.70;;;;;;;1.65;100.00;102202.72;4951743;28;20443;-66
2020/12/25 02:30:24;;;;;;;11.43;2.00;;;;;;;1.64;100.00;102211.59;4952328;28;20031;-66
2020/12/25 02:33:10;;;;;;;13.25;2.00;;;;;;;1.57;100.00;102204.91;4964602;28;20082;-67
2020/12/25 02:35:35;;;;;;;5.50;2.20;;;;;;;1.66;100.00;102212.38;4951638;28;20428;-66
2020/12/25 02:38:01;;;;;;;10.55;2.63;;;;;;;1.68;100.00;102218.44;4951144;28;20484;-66
2020/12/25 02:40:26;;;;;;;5.93;1.92;;;;;;;1.69;100.00;102217.50;4951528;28;20157;-66
2020/12/25 02:42:54;;;;;;;4.65;1.88;;;;;;;1.69;100.00;102214.88;4951119;28;20400;-66
2020/12/25 02:45:20;;;;;;;7.85;2.33;;;;;;;1.69;100.00;102222.81;4951805;29;20046;-66
2020/12/25 02:47:46;;;;;;;6.20;2.25;;;;;;;1.74;100.00;102220.78;4950787;28;20125;-66
2020/12/25 02:50:12;;;;;;;6.20;2.33;;;;;;;1.79;100.00;102232.00;4951881;28;20031;-66
2020/12/25 02:52:38;;;;;;;20.13;3.15;;;;;;;1.75;100.00;102236.56;4951304;28;20031;-66
2020/12/25 02:55:04;;;;;;;13.77;2.55;;;;;;;1.84;100.00;102237.91;4951404;28;20050;-66
2020/12/25 02:57:29;;;;;;;11.35;1.75;;;;;;;1.74;100.00;102240.16;4950567;28;20427;-66
2020/12/25 02:59:55;;;;;;;8.30;1.70;;;;;;;1.69;100.00;102233.38;4951192;28;20452;-66
2020/12/25 03:02:21;;;;;;;5.97;1.67;;;;;;;1.60;100.00;102239.97;4951298;28;20443;-67
2020/12/25 03:04:47;;;;;;;9.57;1.75;;;;;;;1.61;100.00;102246.13;4951848;28;20046;-66
2020/12/25 03:07:12;;;;;;;4.82;1.77;;;;;;;1.74;100.00;102239.31;4951100;28;20030;-67
2020/12/25 03:09:38;;;;;;;5.38;2.00;;;;;;;1.76;100.00;102245.41;4950969;28;20400;-66
2020/12/25 03:12:04;;;;;;;17.60;3.55;;;;;;;1.73;100.00;102241.09;4951531;29;20051;-66
2020/12/25 03:14:30;;;;;;;9.77;2.33;;;;;;;1.69;100.00;102234.25;4951013;28;20045;-67
2020/12/25 03:16:55;;;;;;;10.90;2.17;;;;;;;1.66;100.00;102242.34;4951380;28;20113;-66
2020/12/25 03:19:21;;;;;;;7.45;2.00;;;;;;;1.63;100.00;102250.41;4938004;29;20031;-66
2020/12/25 03:21:47;;;;;;;5.75;1.83;;;;;;;1.58;100.00;102249.78;4950940;28;20039;-66
2020/12/25 03:24:12;;;;;;;5.90;1.98;;;;;;;1.59;100.00;102246.19;4951287;28;20031;-66
2020/12/25 03:26:38;;;;;;;4.10;1.83;;;;;;;1.53;100.00;102247.34;4949893;28;20027;-66
2020/12/25 03:29:03;;;;;;;13.05;1.80;;;;;;;1.48;100.00;102254.66;4950686;28;20130;-66
2020/12/25 03:31:29;;;;;;;10.65;1.60;;;;;;;1.48;100.00;102252.00;4950921;28;20090;-66
2020/12/25 03:33:55;;;;;;;6.25;1.60;;;;;;;1.50;100.00;102249.28;4950428;28;20031;-66
2020/12/25 03:36:21;;;;;;;10.07;1.50;;;;;;;1.49;100.00;102252.88;4950147;28;20039;-66
2020/12/25 03:38:47;;;;;;;4.40;1.38;;;;;;;1.48;100.00;102259.09;4949760;28;20484;-66
2020/12/25 03:41:12;;;;;;;5.80;1.77;;;;;;;1.41;100.00;102253.25;4950907;28;20035;-65
2020/12/25 03:43:38;;;;;;;7.60;1.83;;;;;;;1.54;100.00;102257.00;4950203;28;20075;-66
2020/12/25 03:46:04;;;;;;;5.60;1.73;;;;;;;1.62;100.00;102259.28;4951590;28;20066;-66
2020/12/25 03:48:29;;;;;;;3.13;1.10;;;;;;;1.70;100.00;102259.75;4949931;28;20031;-66
2020/12/25 03:50:56;;;;;;;8.45;1.85;;;;;;;1.68;100.00;102260.78;4951346;28;20031;-66
2020/12/25 03:53:22;;;;;;;2.90;1.23;;;;;;;1.77;100.00;102263.84;4950820;28;20035;-66
2020/12/25 03:55:48;;;;;;;4.90;2.05;;;;;;;1.75;100.00;102264.81;4950680;28;20404;-66
2020/12/25 03:58:13;;;;;;;9.73;3.55;;;;;;;1.69;100.00;102260.69;4949764;28;20093;-66
2020/12/25 04:00:39;;;;;;;14.60;1.90;;;;;;;1.72;100.00;102276.44;4948475;28;20372;-66
2020/12/25 04:03:04;;;;;;;8.05;2.15;;;;;;;1.64;100.00;102278.59;4948990;28;20579;-66
2020/12/25 04:05:30;;;;;;;4.05;1.80;;;;;;;1.65;100.00;102282.06;4950813;28;20058;-66
2020/12/25 04:07:55;;;;;;;6.32;1.40;;;;;;;1.59;100.00;102290.31;4952453;29;20027;-66
2020/12/25 04:10:21;;;;;;;5.60;1.90;;;;;;;1.66;100.00;102284.69;4953423;28;20063;-66
2020/12/25 04:12:46;;;;;;;10.50;3.85;;;;;;;1.64;100.00;102289.16;4953570;28;20038;-66
2020/12/25 04:15:12;;;;;;;11.57;3.22;;;;;;;1.69;100.00;102287.16;4954752;28;20138;-66
2020/12/25 04:17:37;;;;;;;12.15;4.53;;;;;;;1.67;100.00;102281.09;4953737;28;20447;-66
2020/12/25 04:20:03;;;;;;;10.15;3.40;;;;;;;1.74;100.00;102282.50;4952736;28;20304;-66
2020/12/25 04:22:29;;;;;;;9.07;3.67;;;;;;;1.70;100.00;102283.56;4952357;28;20038;-66
2020/12/25 04:24:54;;;;;;;16.15;4.53;;;;;;;1.75;100.00;102284.19;4953204;28;20032;-66
2020/12/25 04:27:20;;;;;;;13.20;3.63;;;;;;;1.69;100.00;102292.44;4951884;28;20042;-66
2020/12/25 04:29:45;;;;;;;12.10;4.03;;;;;;;1.54;100.00;102299.31;4953007;28;20512;-66
2020/12/25 04:32:11;;;;;;;4.70;1.70;;;;;;;1.49;100.00;102295.19;4953407;28;20403;-66
2020/12/25 04:34:36;;;;;;;5.10;1.42;;;;;;;1.49;100.00;102298.69;4967287;28;20535;-66
2020/12/25 04:37:02;;;;;;;5.85;2.30;;;;;;;1.46;100.00;102288.28;4952048;28;20035;-66
2020/12/25 04:39:28;;;;;;;5.93;2.00;;;;;;;1.45;100.00;102296.25;4952560;28;20038;-66
2020/12/25 04:41:55;;;;;;;5.13;1.42;;;;;;;1.45;100.00;102296.25;4948117;28;20163;-66
2020/12/25 04:44:21;;;;;;;3.58;1.42;;;;;;;1.41;100.00;102305.28;4951848;28;20051;-66
2020/12/25 04:46:50;;;;;;;5.93;1.90;;;;;;;1.40;100.00;102296.47;4952034;28;20039;-66
2020/12/25 04:49:17;;;;;;;4.47;1.70;;;;;;;1.50;100.00;102299.53;4953020;28;20047;-66
2020/12/25 04:51:42;;;;;;;6.65;2.28;;;;;;;1.43;100.00;102316.63;4952783;28;20031;-66
2020/12/25 04:54:08;;;;;;;9.38;2.85;;;;;;;1.56;100.00;102323.06;4953090;28;20031;-66
2020/12/25 04:56:33;;;;;;;10.98;3.60;;;;;;;1.52;100.00;102324.16;4951203;28;20254;-66
2020/12/25 04:58:59;;;;;;;13.85;4.22;;;;;;;1.57;100.00;102330.06;4952260;28;20399;-65
2020/12/25 05:01:24;;;;;;;10.15;3.33;;;;;;;1.55;100.00;102334.56;4952291;28;20419;-66
2020/12/25 05:03:50;;;;;;;7.93;3.28;;;;;;;1.49;100.00;102341.00;4951746;28;20544;-66
2020/12/25 05:06:18;;;;;;;14.35;4.70;;;;;;;1.47;100.00;102342.03;4951722;28;20039;-66
2020/12/25 05:08:46;;;;;;;20.83;4.10;;;;;;;1.48;100.00;102335.78;4951456;29;20122;-66
2020/12/25 05:11:14;;;;;;;14.27;4.43;;;;;;;1.35;100.00;102342.56;4951728;28;20032;-66
2020/12/25 05:13:44;;;;;;;10.55;3.60;;;;;;;1.36;100.00;102341.66;4952404;28;20046;-66
2020/12/25 05:16:11;;;;;;;7.07;2.45;;;;;;;1.35;100.00;102345.22;4952081;28;20476;-66
2020/12/25 05:18:40;;;;;;;8.48;2.83;;;;;;;1.31;100.00;102347.16;4931726;28;605617;-65
2020/12/25 05:21:09;;;;;;;40.60;22.92;;;;;;;1.33;100.00;102347.06;4952108;28;20054;-66
2020/12/25 05:23:37;;;;;;;14.45;2.15;;;;;;;1.34;100.00;102354.06;4949223;29;20028;-66
2020/12/25 05:26:05;;;;;;;5.78;2.33;;;;;;;1.40;100.00;102343.22;4953277;28;20031;-66
2020/12/25 05:28:36;;;;;;;9.23;2.00;;;;;;;1.48;100.00;102346.38;4953087;28;20539;-65
2020/12/25 05:31:02;;;;;;;5.13;2.53;;;;;;;1.38;100.00;102340.66;4953457;28;20039;-65
2020/12/25 05:33:27;;;;;;;4.18;2.13;;;;;;;1.29;100.00;102346.34;4953471;28;20042;-66
2020/12/25 05:35:55;;;;;;;20.20;2.53;;;;;;;1.22;100.00;102347.56;4952857;28;20392;-66
2020/12/25 05:38:22;;;;;;;5.78;2.60;;;;;;;1.13;100.00;102355.91;4932069;28;20035;-65
2020/12/25 05:40:49;;;;;;;4.75;2.28;;;;;;;1.09;100.00;102347.25;4947650;28;20023;-66
2020/12/25 05:43:17;;;;;;;11.13;2.78;;;;;;;1.18;100.00;102360.06;4950926;28;20134;-66
2020/12/25 05:45:44;;;;;;;4.85;1.90;;;;;;;1.26;100.00;102362.38;4951097;28;20031;-66
2020/12/25 05:48:10;;;;;;;6.97;2.20;;;;;;;1.34;100.00;102373.44;4950445;28;20035;-66
2020/12/25 05:50:39;;;;;;;6.18;2.55;;;;;;;1.28;100.00;102379.00;4951181;28;20567;-66
2020/12/25 05:53:05;;;;;;;11.52;2.90;;;;;;;1.44;100.00;102379.19;4950438;28;20039;-66
2020/12/25 05:55:32;;;;;;;4.22;2.28;;;;;;;1.41;100.00;102388.13;4951255;28;20047;-65
2020/12/25 05:57:57;;;;;;;10.57;3.28;;;;;;;1.40;100.00;102386.38;4950458;28;20039;-66
2020/12/25 06:00:26;;;;;;;5.47;2.72;;;;;;;1.40;100.00;102385.53;4950866;28;20082;-66
2020/12/25 06:02:54;;;;;;;8.65;2.45;;;;;;;1.39;100.00;102391.75;4949684;28;20035;-65
2020/12/25 06:05:21;;;;;;;6.25;2.80;;;;;;;1.29;100.00;102388.66;4950339;28;20066;-65
2020/12/25 06:07:52;;;;;;;6.70;2.85;;;;;;;1.38;100.00;102387.38;4949953;28;20234;-65
2020/12/25 06:10:21;;;;;;;8.75;3.17;;;;;;;1.45;100.00;102397.59;4950959;28;20440;-66
2020/12/25 06:12:47;;;;;;;5.97;2.92;;;;;;;1.46;100.00;102404.63;4950338;28;20038;-65
2020/12/25 06:15:21;;;;;;;5.70;2.92;;;;;;;1.55;100.00;102411.28;4950426;28;20031;-65
2020/12/25 06:18:01;;;;;;;10.00;2.70;;;;;;;1.54;100.00;102406.91;4949464;28;20035;-66
2020/12/25 06:20:31;;;;;;;8.90;3.53;;;;;;;1.54;100.00;102405.13;4950513;28;20118;-66
2020/12/25 06:22:56;;;;;;;7.85;3.40;;;;;;;1.62;100.00;102415.38;4950135;28;20031;-65
2020/12/25 06:25:24;;;;;;;20.95;5.82;;;;;;;1.62;100.00;102417.16;4950664;28;20042;-66
2020/12/25 06:27:57;;;;;;;13.10;5.63;;;;;;;1.69;100.00;102410.66;4950034;28;20392;-66
2020/12/25 06:30:24;;;;;;;10.02;4.18;;;;;;;1.83;100.00;102417.97;4949159;28;20028;-65
2020/12/25 06:32:53;;;;;;;13.30;3.80;;;;;;;1.83;100.00;102425.91;4949435;28;20035;-66
2020/12/25 06:35:28;;;;;;;9.30;4.07;;;;;;;1.83;100.00;102426.75;4950063;29;20126;-66
2020/12/25 06:37:53;;;;;;;6.75;3.00;;;;;;;1.81;100.00;102428.63;4949361;28;20217;-66
2020/12/25 06:40:24;;;;;;;6.65;3.17;;;;;;;1.80;100.00;102429.53;4949575;28;20279;-66
2020/12/25 06:42:53;;;;;;;6.72;3.40;;;;;;;1.79;100.00;102419.88;4948362;28;20385;-66
2020/12/25 06:45:26;;;;;;;11.45;3.95;;;;;;;1.78;100.00;102426.09;4949287;28;20041;-65
2020/12/25 06:47:52;;;;;;;10.40;4.15;;;;;;;1.74;100.00;102428.03;4948490;28;20023;-65
2020/12/25 06:50:17;;;;;;;6.22;3.42;;;;;;;1.70;100.00;102430.88;4949905;28;20031;-66
2020/12/25 06:52:51;;;;;;;7.63;3.00;;;;;;;1.70;100.00;102428.22;4947792;29;20425;-65
2020/12/25 06:55:17;;;;;;;13.55;3.10;;;;;;;1.75;100.00;102445.63;4949396;28;20050;-65
2020/12/25 06:57:45;;;;;;;8.65;3.58;;;;;;;1.80;100.00;102443.63;4949185;29;20031;-66
2020/12/25 07:00:10;;;;;;;9.70;3.20;;;;;;;1.84;100.00;102443.47;4949608;28;20659;-66
2020/12/25 07:02:40;;;;;;;9.95;3.33;;;;;;;1.83;100.00;102434.69;4948431;29;20031;-65
2020/12/25 07:05:07;;;;;;;12.63;3.95;;;;;;;1.78;100.00;102453.41;4948866;29;20490;-66
2020/12/25 07:07:33;;;;;;;10.88;3.53;;;;;;;1.78;100.00;102445.47;4947937;28;20036;-65
2020/12/25 07:10:08;;;;;;;12.23;3.70;;;;;;;1.73;100.00;102442.19;4948972;28;20034;-65
2020/12/25 07:12:33;;;;;;;6.18;3.17;;;;;;;1.83;100.00;102460.31;4948783;28;20038;-65
2020/12/25 07:14:59;;;;;;;9.35;2.53;;;;;;;1.82;100.00;102456.78;4949524;28;20035;-65
2020/12/25 07:17:25;;;;;;;3.75;2.35;;;;;;;1.70;100.00;102455.53;4949415;28;20034;-65
2020/12/25 07:19:51;;;;;;;6.70;2.38;;;;;;;1.78;100.00;102460.50;4949950;28;20023;-65
2020/12/25 07:22:19;;;;;;;10.40;2.90;;;;;;;1.75;100.00;102466.78;4946330;29;20038;-65
2020/12/25 07:24:45;;;;;;;3.63;2.20;;;;;;;1.74;100.00;102465.06;4948089;28;20396;-65
2020/12/25 07:27:12;;;;;;;6.45;2.10;;;;;;;1.77;100.00;102466.72;4949134;28;20089;-65
2020/12/25 07:29:38;;;;;;;9.52;2.30;;;;;;;1.78;100.00;102466.66;4947761;28;20032;-65
2020/12/25 07:32:04;;;;;;;10.82;2.45;;;;;;;1.68;100.00;102475.94;4948446;28;20035;-65
2020/12/25 07:34:30;;;;;;;11.05;2.15;;;;;;;1.69;100.00;102460.91;4949089;28;20490;-65
2020/12/25 07:36:57;;;;;;;9.02;2.75;;;;;;;1.72;100.00;102477.53;4947048;29;20534;-65
2020/12/25 07:39:24;;;;;;;10.65;2.83;;;;;;;1.79;100.00;102478.94;4949020;28;20034;-65
2020/12/25 07:41:50;;;;;;;10.95;2.90;;;;;;;1.87;100.00;102491.00;4944164;28;20392;-65
2020/12/25 07:44:17;;;;;;;8.85;2.45;;;;;;;1.88;100.00;102482.13;4947788;28;20027;-65
2020/12/25 07:46:44;;;;;;;6.68;1.95;;;;;;;1.83;100.00;102492.06;4948254;28;20043;-65
2020/12/25 07:49:09;;;;;;;7.97;2.30;;;;;;;1.67;100.00;102499.81;4947294;29;20035;-65
2020/12/25 07:51:36;;;;;;;11.77;2.38;;;;;;;1.57;100.00;102509.97;4947430;28;20079;-65
2020/12/25 07:54:03;;;;;;;12.05;2.30;;;;;;;1.75;100.00;102503.81;4948640;28;20027;-65
2020/12/25 07:56:33;;;;;;;11.25;2.63;;;;;;;1.74;100.00;102501.25;4948135;28;20031;-65
2020/12/25 07:59:00;;;;;;;14.70;3.75;;;;;;;1.82;100.00;102509.72;4948817;28;20037;-65
2020/12/25 08:01:28;;;;;;;19.25;4.22;;;;;;;1.77;100.00;102503.78;4947929;28;20122;-65
2020/12/25 08:03:56;;;;;;;11.48;3.47;;;;;;;1.70;100.00;102518.19;4948711;28;20039;-65
2020/12/25 08:06:25;;;;;;;6.32;2.28;;;;;;;1.70;100.00;102519.06;4935690;29;20038;-65
2020/12/25 08:08:56;;;;;;;8.32;2.42;;;;;;;1.85;100.00;102520.16;4948864;28;20043;-66
2020/12/25 08:11:24;;;;;;;12.30;2.15;;;;;;;1.82;100.00;102520.31;4948558;28;20043;-65
2020/12/25 08:13:52;;;;;;;15.07;1.70;;;;;;;1.89;100.00;102527.03;4947350;28;20500;-65
2020/12/25 08:16:18;;;;;;;12.60;2.97;;;;;;;2.03;100.00;102529.06;4948918;28;20082;-65
2020/12/25 08:18:47;;;;;;;12.50;1.75;;;;;;;2.14;100.00;102529.41;4947673;28;20031;-65
2020/12/25 08:21:12;;;;;;;12.52;2.20;;;;;;;2.06;100.00;102527.13;4948522;28;20028;-66
2020/12/25 08:23:38;;;;;;;6.10;1.85;;;;;;;2.15;100.00;102533.78;4948229;28;20057;-65
2020/12/25 08:26:04;;;;;;;16.70;3.13;;;;;;;2.24;100.00;102536.00;4949114;28;20035;-65
2020/12/25 08:28:31;;;;;;;6.20;1.80;;;;;;;2.30;100.00;102530.41;4948135;28;20114;-66
2020/12/25 08:30:57;;;;;;;16.02;2.20;;;;;;;2.44;100.00;102529.78;4948822;28;20115;-66
2020/12/25 08:33:25;;;;;;;13.52;2.10;;;;;;;2.41;100.00;102518.47;4947673;28;20159;-65
2020/12/25 08:35:50;;;;;;;6.53;1.67;;;;;;;2.50;100.00;102523.31;4948565;29;20031;-65
2020/12/25 08:38:16;;;;;;;61.83;20.02;;;;;;;2.62;100.00;102536.00;4948420;28;20043;-68
2020/12/25 08:40:44;;;;;;;11.77;3.70;;;;;;;2.70;100.00;102535.63;4948650;28;20085;-65
2020/12/25 08:43:12;;;;;;;18.70;4.78;;;;;;;2.85;100.00;102527.78;4947662;28;20067;-68
2020/12/25 08:45:40;;;;;;;10.13;2.22;;;;;;;2.84;100.00;102528.72;4948418;28;20533;-65
2020/12/25 08:48:09;;;;;;;36.75;24.08;;;;;;;2.90;100.00;102529.34;4947975;28;20049;-65
2020/12/25 08:50:35;;;;;;;9.80;2.78;;;;;;;2.95;100.00;102535.28;4948250;29;20040;-65
2020/12/25 08:53:20;;;;;;;11.45;2.00;;;;;;;3.00;100.00;102541.22;4949290;28;20522;-65
2020/12/25 08:55:48;;;;;;;11.05;1.70;;;;;;;3.06;100.00;102543.56;4951967;28;20105;-66
2020/12/25 08:58:18;;;;;;;11.57;2.40;;;;;;;3.13;100.00;102546.78;4951230;28;20031;-65
2020/12/25 09:00:58;;;;;;;9.63;2.17;;;;;;;3.07;100.00;102553.25;4951791;28;20146;-65
2020/12/25 09:03:35;;;;;;;10.52;1.60;;;;;;;2.98;100.00;102541.28;4951510;28;20035;-66
2020/12/25 09:06:00;;;;;;;14.02;2.47;;;;;;;2.87;100.00;102543.63;4951691;28;20031;-66
2020/12/25 09:08:26;;;;;;;8.68;1.90;;;;;;;2.85;100.00;102541.03;4951863;28;20042;-66
2020/12/25 09:10:52;;;;;;;10.07;1.85;;;;;;;2.78;100.00;102550.22;4951376;28;20609;-66
2020/12/25 09:13:17;;;;;;;14.70;2.25;;;;;;;2.81;100.00;102549.19;4952206;28;20042;-66
2020/12/25 09:15:43;;;;;;;13.30;2.80;;;;;;;2.70;100.00;102552.38;4951805;28;20493;-66
2020/12/25 09:18:08;;;;;;;14.55;2.40;;;;;;;2.71;100.00;102551.47;4950099;29;20403;-66
2020/12/25 09:20:34;;;;;;;13.30;2.90;;;;;;;2.69;100.00;102555.97;4951520;28;20266;-66
2020/12/25 09:22:59;;;;;;;12.82;2.88;;;;;;;2.75;100.00;102566.25;4951306;28;20137;-65
2020/12/25 09:25:25;;;;;;;12.15;2.67;;;;;;;2.70;100.00;102552.38;4951168;29;20611;-66
2020/12/25 09:27:50;;;;;;;16.20;3.80;;;;;;;2.78;100.00;102555.53;4951389;28;20031;-66
2020/12/25 09:30:16;;;;;;;14.60;3.35;;;;;;;2.84;100.00;102557.00;4951027;28;20767;-65
2020/12/25 09:32:41;;;;;;;13.77;3.13;;;;;;;2.94;100.00;102560.94;4951457;28;20042;-66
2020/12/25 09:35:07;;;;;;;11.32;3.58;;;;;;;2.97;100.00;102550.19;4951349;28;20034;-65
2020/12/25 09:37:33;;;;;;;12.88;3.60;;;;;;;3.05;100.00;102565.69;4951235;28;20397;-66
2020/12/25 09:39:58;;;;;;;22.00;5.35;;;;;;;3.19;100.00;102571.19;4950496;28;20114;-66
2020/12/25 09:42:24;;;;;;;13.15;3.20;;;;;;;3.30;100.00;102583.91;4951217;28;20110;-66
2020/12/25 09:44:49;;;;;;;34.50;13.90;;;;;;;3.32;100.00;102569.66;4950720;28;20059;-65
2020/12/25 09:47:18;;;;;;;29.83;14.95;;;;;;;3.48;100.00;102576.81;4951286;28;20143;-65
2020/12/25 09:49:45;;;;;;;10.52;3.03;;;;;;;3.54;100.00;102576.50;4950815;28;20126;-66
2020/12/25 09:52:10;;;;;;;20.55;6.45;;;;;;;3.71;100.00;102583.59;4950680;29;20031;-66
2020/12/25 09:54:36;;;;;;;19.90;7.72;;;;;;;3.81;100.00;102584.81;4949268;28;20039;-66
2020/12/25 09:57:02;;;;;;;13.75;2.80;;;;;;;3.98;100.00;102589.28;4950613;28;20054;-66
2020/12/25 09:59:28;;;;;;;14.98;2.67;;;;;;;4.10;100.00;102580.63;4951319;28;20031;-66
2020/12/25 10:01:53;;;;;;;7.50;2.35;;;;;;;4.18;99.72;102581.09;4950289;28;20073;-65
2020/12/25 10:04:19;;;;;;;10.57;1.83;;;;;;;4.12;99.99;102584.09;4949728;28;20589;-66
2020/12/25 10:06:45;;;;;;;13.57;2.35;;;;;;;4.08;100.00;102587.84;4951356;28;20039;-65
2020/12/25 10:09:10;;;;;;;11.60;2.20;;;;;;;4.01;99.09;102589.94;4949929;28;20023;-65
2020/12/25 10:11:36;;;;;;;12.23;2.13;;;;;;;4.07;98.54;102586.13;4950260;28;20428;-66
2020/12/25 10:14:02;;;;;;;9.45;2.30;;;;;;;4.10;98.30;102588.59;4950381;28;20035;-66
2020/12/25 10:16:28;;;;;;;10.70;2.53;;;;;;;4.09;97.46;102589.56;4950016;28;20435;-66
2020/12/25 10:18:53;;;;;;;9.05;2.25;;;;;;;4.06;98.80;102589.72;4950193;28;20043;-66
2020/12/25 10:21:19;;;;;;;9.85;1.77;;;;;;;4.10;99.23;102589.47;4949073;29;20086;-66
2020/12/25 10:23:45;;;;;;;11.80;2.70;;;;;;;4.13;99.40;102591.13;4949902;28;20077;-66
2020/12/25 10:26:11;;;;;;;5.32;1.50;;;;;;;4.20;98.46;102597.81;4947136;28;20038;-66
2020/12/25 10:28:37;;;;;;;8.55;3.42;;;;;;;4.33;95.13;102588.25;4947797;28;20054;-66
2020/12/25 10:31:03;;;;;;;15.50;7.50;;;;;;;4.38;96.78;102590.66;4950204;28;20507;-66
2020/12/25 10:33:29;;;;;;;11.35;2.60;;;;;;;4.50;95.73;102591.75;4950633;28;20027;-66
2020/12/25 10:35:54;;;;;;;10.82;2.10;;;;;;;4.53;95.23;102588.94;4950125;28;20381;-65
2020/12/25 10:38:20;;;;;;;27.85;7.15;;;;;;;4.53;95.87;102588.94;4949871;28;20488;-66
2020/12/25 10:40:45;;;;;;;13.80;3.85;;;;;;;4.56;95.25;102594.06;4948891;29;20058;-66
2020/12/25 10:43:11;;;;;;;7.68;1.60;;;;;;;4.77;92.75;102590.25;4949577;28;20119;-66
2020/12/25 10:45:38;;;;;;;81.88;21.77;;;;;;;4.70;94.57;102588.84;4949930;28;20083;-65
2020/12/25 10:48:03;;;;;;;26.27;4.57;;;;;;;4.85;93.81;102587.13;4949190;28;20054;-66
2020/12/25 10:50:29;;;;;;;11.48;2.60;;;;;;;4.93;94.43;102577.78;4950122;28;20391;-66
2020/12/25 10:52:55;;;;;;;16.27;2.30;;;;;;;4.94;93.91;102594.59;4947972;29;20039;-66
2020/12/25 10:55:21;;;;;;;10.80;1.40;;;;;;;5.13;92.87;102595.28;4950610;28;20035;-66
2020/12/25 10:57:47;;;;;;;11.63;2.13;;;;;;;5.17;92.79;102596.81;4948901;28;20134;-66
2020/12/25 11:00:12;;;;;;;13.07;2.10;;;;;;;5.22;91.66;102593.88;4949877;28;20508;-66
2020/12/25 11:02:38;;;;;;;8.93;1.90;;;;;;;5.14;93.25;102599.63;4948850;28;20515;-66
2020/12/25 11:05:04;;;;;;;14.35;3.33;;;;;;;5.20;93.17;102601.09;4949775;28;20114;-66
2020/12/25 11:07:30;;;;;;;11.98;1.80;;;;;;;5.15;94.91;102597.84;4948527;28;20031;-66
2020/12/25 11:09:55;;;;;;;11.77;2.25;;;;;;;5.32;91.89;102588.84;4949766;28;20043;-66
2020/12/25 11:12:21;;;;;;;11.73;2.13;;;;;;;5.44;90.18;102589.00;4948780;28;20458;-66
2020/12/25 11:14:47;;;;;;;11.35;3.15;;;;;;;5.49;88.16;102586.09;4948127;28;20027;-66
2020/12/25 11:17:15;;;;;;;8.40;2.50;;;;;;;5.51;88.29;102578.84;4948409;28;20049;-66
2020/12/25 11:19:42;;;;;;;13.25;2.75;;;;;;;5.52;88.86;102585.88;4949377;28;20031;-67